Slagle, Missouri
Current Conditions -  °F | °C
As of 2:52 AM on Saturday 25 Oct 2014 (Local Time) from KSGF Reporting Station
Clear Clear  
Wind Chill: 58°   Ceiling: Unl
Heat Index: 58°   Visibility: 9mi
Dew Point: 56°   Wind: 7mph
Humidity: 93%   Direction: 210°SSW
Pressure: 30.05"   Gusts: NA
Location:  37.6066°N, 93.4143°W
Report Text: KSGF 250752Z 21006KT 9SM CLR 14/13 A3005 RMK AO2 SLP166 T01440133
Loading
Personal Weather Stations






























Interactive Weather Map New forecast layout! Learn more

10-Day Weather Forecast

Advertisements
Track Severe Weather on mobile